This is the latest recevied weather packets stored in our database for station/object KC4MCQ-10. If no packets are shown the sender has not sent any weather packets the latest 10 day(s).
| Time | Temp. | Humidity | Pressure | Rain* | Wind** | Luminosity | Snow |
|---|---|---|---|---|---|---|---|
| 1787602093 | 31.67° C | 72% | 1014.4 hPa | 0 mm | 0.45 m/s, 184° | - | - |
| 1787601492 | 31.67° C | 72% | 1014.6 hPa | 0 mm | 0.45 m/s, 223° | - | - |
| 1787600891 | 32.22° C | 71% | 1014.6 hPa | 0 mm | 0.89 m/s, 205° | - | - |
| 1787600290 | 32.78° C | 68% | 1014.8 hPa | 0 mm | 2.68 m/s, 188° | - | - |
| 1787599689 | 34.44° C | 64% | 1014.4 hPa | 0 mm | 3.58 m/s, 152° | - | - |
| 1787599089 | 34.44° C | 64% | 1014.5 hPa | 0 mm | 3.13 m/s, 196° | - | - |
| 1787598480 | 35° C | 65% | 1014.5 hPa | 0 mm | 1.79 m/s, 153° | - | - |
| 1787597879 | 34.44° C | 65% | 1014.8 hPa | 0 mm | 1.34 m/s, 133° | - | - |
| 1787597279 | 33.89° C | 65% | 1014.7 hPa | 0 mm | 0.89 m/s, 179° | - | - |
| 1787595477 | 34.44° C | 60% | 1015.5 hPa | 0 mm | 1.34 m/s, 166° | - | - |
| 1787593645 | 33.89° C | 64% | 1015.7 hPa | 0 mm | 1.34 m/s, 186° | - | - |
| 1787593045 | 33.89° C | 63% | 1016 hPa | 0 mm | 0 m/s | - | - |
| 1787592443 | 33.33° C | 63% | 1016 hPa | 0 mm | 1.34 m/s, 332° | - | - |
| 1787591842 | 33.33° C | 63% | 1016.1 hPa | 0 mm | 1.34 m/s, 264° | - | - |
| 1787591241 | 33.33° C | 66% | 1016.3 hPa | 0 mm | 0.89 m/s, 205° | - | - |
| 1787590638 | 33.33° C | 68% | 1016.5 hPa | 0 mm | 1.34 m/s, 304° | - | - |
| 1787590035 | 33.33° C | 69% | 1016.7 hPa | 0 mm | 1.79 m/s, 271° | - | - |
| 1787589430 | 32.78° C | 69% | 1016.8 hPa | 0 mm | 1.34 m/s, 286° | - | - |
| 1787587575 | 31.67° C | 72% | 1017 hPa | 0 mm | 0.45 m/s, 312° | - | - |
| 1787585744 | 31.67° C | 75% | 1017.1 hPa | 0 mm | 0.89 m/s, 86° | - | - |
| 1787585125 | 31.11° C | 76% | 1017.1 hPa | 0 mm | 0.89 m/s, 320° | - | - |
| 1787584525 | 30.56° C | 78% | 1017.2 hPa | 0 mm | 0.45 m/s, 273° | - | - |
| 1787583923 | 31.11° C | 79% | 1017.2 hPa | 0 mm | 0.89 m/s, 260° | - | - |
| 1787583314 | 30.56° C | 80% | 1017.2 hPa | 0 mm | 0.89 m/s, 305° | - | - |
| 1787582711 | 30° C | 80% | 1017.3 hPa | 0 mm | 0.45 m/s, 297° | - | - |
* Rain latest 24 hours (hover to see other rain measurements)
** Current wind speed in m/s (hover to see current wind gust speed)